sensor_id;sensor_type;location;lat;lon;timestamp;P1;durP1;ratioP1;P2;durP2;ratioP2
61590;SDS011;57639;52.410;-1.966;2023-02-28T00:00:14;207.32;;;97.90;;
61590;SDS011;57639;52.410;-1.966;2023-02-28T00:03:24;203.35;;;90.80;;
61590;SDS011;57639;52.410;-1.966;2023-02-28T00:06:30;198.68;;;89.35;;
61590;SDS011;57639;52.410;-1.966;2023-02-28T00:09:36;182.82;;;86.00;;
61590;SDS011;57639;52.410;-1.966;2023-02-28T00:12:42;181.50;;;83.70;;
61590;SDS011;57639;52.410;-1.966;2023-02-28T00:15:47;174.48;;;82.25;;
61590;SDS011;57639;52.410;-1.966;2023-02-28T00:19:07;164.98;;;79.00;;
61590;SDS011;57639;52.410;-1.966;2023-02-28T00:22:16;162.93;;;75.70;;
61590;SDS011;57639;52.410;-1.966;2023-02-28T00:25:23;151.55;;;74.05;;
61590;SDS011;57639;52.410;-1.966;2023-02-28T00:28:30;152.57;;;72.13;;
61590;SDS011;57639;52.410;-1.966;2023-02-28T00:31:36;144.85;;;68.63;;
61590;SDS011;57639;52.410;-1.966;2023-02-28T00:34:45;145.50;;;69.90;;
61590;SDS011;57639;52.410;-1.966;2023-02-28T00:37:51;137.77;;;64.00;;
61590;SDS011;57639;52.410;-1.966;2023-02-28T00:40:57;136.45;;;62.42;;
61590;SDS011;57639;52.410;-1.966;2023-02-28T00:44:06;134.00;;;63.08;;
61590;SDS011;57639;52.410;-1.966;2023-02-28T00:47:12;125.78;;;59.42;;
61590;SDS011;57639;52.410;-1.966;2023-02-28T00:50:21;122.93;;;60.30;;
61590;SDS011;57639;52.410;-1.966;2023-02-28T00:53:27;115.78;;;56.75;;
61590;SDS011;57639;52.410;-1.966;2023-02-28T00:56:34;114.70;;;54.33;;
61590;SDS011;57639;52.410;-1.966;2023-02-28T00:59:40;112.03;;;52.47;;
61590;SDS011;57639;52.410;-1.966;2023-02-28T01:02:46;106.80;;;52.67;;
61590;SDS011;57639;52.410;-1.966;2023-02-28T01:05:55;100.97;;;49.28;;
61590;SDS011;57639;52.410;-1.966;2023-02-28T01:09:01;97.03;;;48.30;;
61590;SDS011;57639;52.410;-1.966;2023-02-28T01:12:08;95.45;;;46.78;;
61590;SDS011;57639;52.410;-1.966;2023-02-28T01:15:14;97.82;;;46.53;;
61590;SDS011;57639;52.410;-1.966;2023-02-28T01:18:21;95.45;;;46.00;;
61590;SDS011;57639;52.410;-1.966;2023-02-28T01:21:30;87.88;;;43.28;;
61590;SDS011;57639;52.410;-1.966;2023-02-28T01:24:37;85.15;;;41.38;;
61590;SDS011;57639;52.410;-1.966;2023-02-28T01:27:43;88.18;;;41.85;;
61590;SDS011;57639;52.410;-1.966;2023-02-28T01:30:49;80.88;;;39.70;;
61590;SDS011;57639;52.410;-1.966;2023-02-28T01:33:56;75.35;;;38.03;;
61590;SDS011;57639;52.410;-1.966;2023-02-28T01:37:05;75.97;;;36.50;;
61590;SDS011;57639;52.410;-1.966;2023-02-28T01:40:11;67.03;;;35.35;;
61590;SDS011;57639;52.410;-1.966;2023-02-28T01:43:22;73.68;;;35.10;;
61590;SDS011;57639;52.410;-1.966;2023-02-28T01:46:30;63.42;;;33.38;;
61590;SDS011;57639;52.410;-1.966;2023-02-28T01:49:36;62.08;;;32.15;;
61590;SDS011;57639;52.410;-1.966;2023-02-28T01:52:46;67.05;;;33.03;;
61590;SDS011;57639;52.410;-1.966;2023-02-28T01:55:53;56.80;;;30.67;;
61590;SDS011;57639;52.410;-1.966;2023-02-28T01:58:59;61.13;;;30.08;;
61590;SDS011;57639;52.410;-1.966;2023-02-28T02:02:06;54.70;;;29.38;;
61590;SDS011;57639;52.410;-1.966;2023-02-28T02:05:14;58.53;;;28.48;;
61590;SDS011;57639;52.410;-1.966;2023-02-28T02:08:25;44.67;;;26.13;;
61590;SDS011;57639;52.410;-1.966;2023-02-28T02:11:33;52.15;;;26.95;;
61590;SDS011;57639;52.410;-1.966;2023-02-28T02:14:43;50.97;;;25.10;;
61590;SDS011;57639;52.410;-1.966;2023-02-28T02:18:04;48.10;;;24.38;;
61590;SDS011;57639;52.410;-1.966;2023-02-28T02:21:30;50.97;;;24.45;;
61590;SDS011;57639;52.410;-1.966;2023-02-28T02:25:17;45.63;;;23.92;;
61590;SDS011;57639;52.410;-1.966;2023-02-28T02:28:36;43.97;;;23.30;;
61590;SDS011;57639;52.410;-1.966;2023-02-28T02:32:18;44.00;;;22.63;;
61590;SDS011;57639;52.410;-1.966;2023-02-28T02:35:43;42.42;;;22.45;;
61590;SDS011;57639;52.410;-1.966;2023-02-28T02:38:58;38.67;;;20.38;;
61590;SDS011;57639;52.410;-1.966;2023-02-28T02:42:12;39.08;;;20.02;;
61590;SDS011;57639;52.410;-1.966;2023-02-28T02:45:22;39.95;;;20.45;;
61590;SDS011;57639;52.410;-1.966;2023-02-28T02:48:32;38.72;;;20.65;;
61590;SDS011;57639;52.410;-1.966;2023-02-28T02:51:43;35.50;;;18.13;;
61590;SDS011;57639;52.410;-1.966;2023-02-28T02:54:52;35.92;;;18.17;;
61590;SDS011;57639;52.410;-1.966;2023-02-28T02:58:01;31.08;;;17.38;;
61590;SDS011;57639;52.410;-1.966;2023-02-28T03:01:10;34.45;;;17.95;;
61590;SDS011;57639;52.410;-1.966;2023-02-28T03:04:20;30.13;;;16.85;;
61590;SDS011;57639;52.410;-1.966;2023-02-28T03:07:32;30.27;;;15.83;;
61590;SDS011;57639;52.410;-1.966;2023-02-28T03:10:39;31.42;;;16.20;;
61590;SDS011;57639;52.410;-1.966;2023-02-28T03:13:50;27.15;;;15.10;;
61590;SDS011;57639;52.410;-1.966;2023-02-28T03:17:20;28.00;;;14.02;;
61590;SDS011;57639;52.410;-1.966;2023-02-28T03:20:40;28.98;;;14.82;;
61590;SDS011;57639;52.410;-1.966;2023-02-28T03:23:59;26.48;;;13.57;;
61590;SDS011;57639;52.410;-1.966;2023-02-28T03:27:11;27.92;;;13.98;;
61590;SDS011;57639;52.410;-1.966;2023-02-28T03:30:24;26.08;;;13.80;;
61590;SDS011;57639;52.410;-1.966;2023-02-28T03:33:33;27.47;;;13.83;;
61590;SDS011;57639;52.410;-1.966;2023-02-28T03:36:42;21.65;;;12.50;;
61590;SDS011;57639;52.410;-1.966;2023-02-28T03:39:56;24.13;;;12.35;;
61590;SDS011;57639;52.410;-1.966;2023-02-28T03:43:07;24.25;;;12.25;;
61590;SDS011;57639;52.410;-1.966;2023-02-28T03:46:18;22.63;;;12.02;;
61590;SDS011;57639;52.410;-1.966;2023-02-28T03:49:30;22.95;;;11.27;;
61590;SDS011;57639;52.410;-1.966;2023-02-28T03:52:40;19.58;;;10.80;;
61590;SDS011;57639;52.410;-1.966;2023-02-28T03:55:54;22.52;;;11.10;;
61590;SDS011;57639;52.410;-1.966;2023-02-28T03:59:04;21.60;;;10.77;;
61590;SDS011;57639;52.410;-1.966;2023-02-28T04:02:15;18.65;;;10.18;;
61590;SDS011;57639;52.410;-1.966;2023-02-28T04:05:21;19.65;;;9.77;;
61590;SDS011;57639;52.410;-1.966;2023-02-28T04:08:28;19.50;;;9.52;;
61590;SDS011;57639;52.410;-1.966;2023-02-28T04:11:37;17.42;;;9.52;;
61590;SDS011;57639;52.410;-1.966;2023-02-28T04:14:45;18.13;;;9.70;;
61590;SDS011;57639;52.410;-1.966;2023-02-28T04:17:51;14.13;;;8.25;;
61590;SDS011;57639;52.410;-1.966;2023-02-28T04:20:59;15.80;;;8.73;;
61590;SDS011;57639;52.410;-1.966;2023-02-28T04:24:05;15.13;;;7.63;;
61590;SDS011;57639;52.410;-1.966;2023-02-28T04:27:19;13.93;;;8.15;;
61590;SDS011;57639;52.410;-1.966;2023-02-28T04:30:25;14.02;;;8.05;;
61590;SDS011;57639;52.410;-1.966;2023-02-28T04:33:32;11.95;;;6.88;;
61590;SDS011;57639;52.410;-1.966;2023-02-28T04:36:38;13.30;;;7.25;;
61590;SDS011;57639;52.410;-1.966;2023-02-28T04:39:44;13.30;;;7.03;;
61590;SDS011;57639;52.410;-1.966;2023-02-28T04:42:53;11.20;;;7.00;;
61590;SDS011;57639;52.410;-1.966;2023-02-28T04:46:00;12.20;;;6.82;;
61590;SDS011;57639;52.410;-1.966;2023-02-28T04:49:08;11.50;;;6.38;;
61590;SDS011;57639;52.410;-1.966;2023-02-28T04:52:15;10.98;;;6.57;;
61590;SDS011;57639;52.410;-1.966;2023-02-28T04:55:21;10.82;;;6.53;;
61590;SDS011;57639;52.410;-1.966;2023-02-28T04:58:29;9.00;;;5.90;;
61590;SDS011;57639;52.410;-1.966;2023-02-28T05:01:36;11.20;;;6.25;;
61590;SDS011;57639;52.410;-1.966;2023-02-28T05:04:42;9.77;;;5.72;;
61590;SDS011;57639;52.410;-1.966;2023-02-28T05:07:48;9.13;;;5.25;;
61590;SDS011;57639;52.410;-1.966;2023-02-28T05:10:58;8.95;;;5.60;;
61590;SDS011;57639;52.410;-1.966;2023-02-28T05:14:13;9.93;;;5.50;;
61590;SDS011;57639;52.410;-1.966;2023-02-28T05:17:25;11.18;;;5.63;;
61590;SDS011;57639;52.410;-1.966;2023-02-28T05:20:37;9.23;;;5.15;;
61590;SDS011;57639;52.410;-1.966;2023-02-28T05:23:50;9.23;;;5.13;;
61590;SDS011;57639;52.410;-1.966;2023-02-28T05:27:02;7.97;;;4.82;;
61590;SDS011;57639;52.410;-1.966;2023-02-28T05:30:12;8.48;;;4.90;;
61590;SDS011;57639;52.410;-1.966;2023-02-28T05:33:18;8.95;;;4.88;;
61590;SDS011;57639;52.410;-1.966;2023-02-28T05:36:24;8.27;;;5.15;;
61590;SDS011;57639;52.410;-1.966;2023-02-28T05:39:30;8.88;;;4.90;;
61590;SDS011;57639;52.410;-1.966;2023-02-28T05:42:36;8.20;;;4.82;;
61590;SDS011;57639;52.410;-1.966;2023-02-28T05:45:45;7.82;;;4.72;;
61590;SDS011;57639;52.410;-1.966;2023-02-28T05:48:51;7.75;;;4.63;;
61590;SDS011;57639;52.410;-1.966;2023-02-28T05:51:58;8.68;;;4.50;;
61590;SDS011;57639;52.410;-1.966;2023-02-28T05:55:04;7.38;;;4.05;;
61590;SDS011;57639;52.410;-1.966;2023-02-28T05:58:10;6.53;;;4.10;;
61590;SDS011;57639;52.410;-1.966;2023-02-28T06:01:24;6.15;;;4.00;;
61590;SDS011;57639;52.410;-1.966;2023-02-28T06:04:37;6.53;;;4.07;;
61590;SDS011;57639;52.410;-1.966;2023-02-28T06:07:43;5.90;;;3.83;;
61590;SDS011;57639;52.410;-1.966;2023-02-28T06:10:49;5.85;;;4.03;;
61590;SDS011;57639;52.410;-1.966;2023-02-28T06:13:55;5.72;;;3.72;;
61590;SDS011;57639;52.410;-1.966;2023-02-28T06:17:05;5.50;;;3.80;;
61590;SDS011;57639;52.410;-1.966;2023-02-28T06:20:11;5.97;;;3.42;;
61590;SDS011;57639;52.410;-1.966;2023-02-28T06:23:17;7.13;;;3.72;;
61590;SDS011;57639;52.410;-1.966;2023-02-28T06:26:24;5.22;;;3.40;;
61590;SDS011;57639;52.410;-1.966;2023-02-28T06:29:30;5.55;;;3.50;;
61590;SDS011;57639;52.410;-1.966;2023-02-28T06:32:39;5.65;;;3.70;;
61590;SDS011;57639;52.410;-1.966;2023-02-28T06:35:47;6.50;;;3.63;;
61590;SDS011;57639;52.410;-1.966;2023-02-28T06:39:01;6.65;;;3.53;;
61590;SDS011;57639;52.410;-1.966;2023-02-28T06:42:16;5.85;;;3.42;;
61590;SDS011;57639;52.410;-1.966;2023-02-28T06:45:29;5.60;;;3.05;;
61590;SDS011;57639;52.410;-1.966;2023-02-28T06:48:42;4.93;;;3.47;;
61590;SDS011;57639;52.410;-1.966;2023-02-28T06:51:53;5.57;;;3.45;;
61590;SDS011;57639;52.410;-1.966;2023-02-28T06:55:04;5.90;;;3.30;;
61590;SDS011;57639;52.410;-1.966;2023-02-28T06:58:14;4.32;;;3.15;;
61590;SDS011;57639;52.410;-1.966;2023-02-28T07:01:22;4.53;;;3.20;;
61590;SDS011;57639;52.410;-1.966;2023-02-28T07:04:39;7.40;;;3.80;;
61590;SDS011;57639;52.410;-1.966;2023-02-28T07:07:48;5.60;;;3.30;;
61590;SDS011;57639;52.410;-1.966;2023-02-28T07:10:59;4.90;;;3.42;;
61590;SDS011;57639;52.410;-1.966;2023-02-28T07:14:07;5.13;;;3.30;;
61590;SDS011;57639;52.410;-1.966;2023-02-28T07:17:15;4.53;;;3.17;;
61590;SDS011;57639;52.410;-1.966;2023-02-28T07:20:31;4.72;;;3.08;;
61590;SDS011;57639;52.410;-1.966;2023-02-28T07:23:42;4.38;;;3.00;;
61590;SDS011;57639;52.410;-1.966;2023-02-28T07:26:50;5.35;;;3.33;;
61590;SDS011;57639;52.410;-1.966;2023-02-28T07:30:01;5.13;;;3.40;;
61590;SDS011;57639;52.410;-1.966;2023-02-28T07:33:17;3.80;;;2.95;;
61590;SDS011;57639;52.410;-1.966;2023-02-28T07:36:30;3.58;;;2.60;;
61590;SDS011;57639;52.410;-1.966;2023-02-28T07:39:41;4.18;;;2.75;;
61590;SDS011;57639;52.410;-1.966;2023-02-28T07:42:52;3.83;;;2.97;;
61590;SDS011;57639;52.410;-1.966;2023-02-28T07:46:01;4.10;;;2.75;;
61590;SDS011;57639;52.410;-1.966;2023-02-28T07:49:14;4.72;;;3.05;;
61590;SDS011;57639;52.410;-1.966;2023-02-28T07:52:26;3.75;;;2.58;;
61590;SDS011;57639;52.410;-1.966;2023-02-28T07:55:37;3.75;;;2.30;;
61590;SDS011;57639;52.410;-1.966;2023-02-28T07:58:46;4.47;;;2.40;;
61590;SDS011;57639;52.410;-1.966;2023-02-28T08:01:57;3.67;;;2.30;;
61590;SDS011;57639;52.410;-1.966;2023-02-28T08:05:12;3.38;;;2.17;;
61590;SDS011;57639;52.410;-1.966;2023-02-28T08:08:30;4.57;;;2.30;;
61590;SDS011;57639;52.410;-1.966;2023-02-28T08:11:39;4.03;;;2.53;;
61590;SDS011;57639;52.410;-1.966;2023-02-28T08:14:47;3.42;;;2.33;;
61590;SDS011;57639;52.410;-1.966;2023-02-28T08:17:54;4.07;;;2.08;;
61590;SDS011;57639;52.410;-1.966;2023-02-28T08:21:09;3.25;;;2.17;;
61590;SDS011;57639;52.410;-1.966;2023-02-28T08:24:22;2.95;;;2.10;;
61590;SDS011;57639;52.410;-1.966;2023-02-28T08:27:30;2.67;;;1.90;;
61590;SDS011;57639;52.410;-1.966;2023-02-28T08:34:38;7.47;;;2.03;;
61590;SDS011;57639;52.410;-1.966;2023-02-28T08:37:47;3.08;;;2.13;;
61590;SDS011;57639;52.410;-1.966;2023-02-28T08:40:59;2.97;;;2.05;;
61590;SDS011;57639;52.410;-1.966;2023-02-28T08:44:08;3.50;;;2.03;;
61590;SDS011;57639;52.410;-1.966;2023-02-28T08:47:14;3.40;;;1.92;;
61590;SDS011;57639;52.410;-1.966;2023-02-28T08:50:20;3.42;;;1.90;;
61590;SDS011;57639;52.410;-1.966;2023-02-28T08:53:26;2.40;;;1.50;;
61590;SDS011;57639;52.410;-1.966;2023-02-28T08:56:35;4.03;;;1.60;;
61590;SDS011;57639;52.410;-1.966;2023-02-28T08:59:41;2.15;;;1.60;;
61590;SDS011;57639;52.410;-1.966;2023-02-28T09:02:47;2.10;;;1.65;;
61590;SDS011;57639;52.410;-1.966;2023-02-28T09:05:54;3.15;;;1.50;;
61590;SDS011;57639;52.410;-1.966;2023-02-28T09:09:03;2.55;;;1.50;;
61590;SDS011;57639;52.410;-1.966;2023-02-28T09:12:12;2.03;;;1.60;;
61590;SDS011;57639;52.410;-1.966;2023-02-28T09:15:18;2.17;;;1.50;;
61590;SDS011;57639;52.410;-1.966;2023-02-28T09:18:26;2.35;;;1.40;;
61590;SDS011;57639;52.410;-1.966;2023-02-28T09:21:33;2.20;;;1.48;;
61590;SDS011;57639;52.410;-1.966;2023-02-28T09:24:39;2.78;;;1.40;;
61590;SDS011;57639;52.410;-1.966;2023-02-28T09:27:49;1.60;;;1.20;;
61590;SDS011;57639;52.410;-1.966;2023-02-28T09:30:55;2.80;;;1.33;;
61590;SDS011;57639;52.410;-1.966;2023-02-28T09:34:01;2.47;;;1.27;;
61590;SDS011;57639;52.410;-1.966;2023-02-28T09:37:09;2.03;;;1.30;;
61590;SDS011;57639;52.410;-1.966;2023-02-28T09:40:16;1.83;;;1.25;;
61590;SDS011;57639;52.410;-1.966;2023-02-28T09:43:27;1.42;;;1.10;;
61590;SDS011;57639;52.410;-1.966;2023-02-28T09:46:41;2.30;;;1.30;;
61590;SDS011;57639;52.410;-1.966;2023-02-28T09:49:51;1.30;;;1.10;;
61590;SDS011;57639;52.410;-1.966;2023-02-28T09:52:57;1.45;;;1.02;;
61590;SDS011;57639;52.410;-1.966;2023-02-28T09:56:05;1.85;;;1.20;;
61590;SDS011;57639;52.410;-1.966;2023-02-28T09:59:20;1.85;;;1.30;;
61590;SDS011;57639;52.410;-1.966;2023-02-28T10:06:12;1.90;;;1.40;;
61590;SDS011;57639;52.410;-1.966;2023-02-28T10:09:22;1.52;;;1.00;;
61590;SDS011;57639;52.410;-1.966;2023-02-28T10:12:32;1.42;;;0.88;;
61590;SDS011;57639;52.410;-1.966;2023-02-28T10:15:41;1.48;;;0.95;;
61590;SDS011;57639;52.410;-1.966;2023-02-28T10:18:51;1.48;;;0.90;;
61590;SDS011;57639;52.410;-1.966;2023-02-28T10:22:00;1.20;;;0.85;;
61590;SDS011;57639;52.410;-1.966;2023-02-28T10:25:15;1.17;;;0.93;;
61590;SDS011;57639;52.410;-1.966;2023-02-28T10:28:24;1.50;;;0.95;;
61590;SDS011;57639;52.410;-1.966;2023-02-28T10:31:33;0.95;;;0.80;;
61590;SDS011;57639;52.410;-1.966;2023-02-28T10:34:39;1.30;;;0.93;;
61590;SDS011;57639;52.410;-1.966;2023-02-28T10:37:46;1.02;;;0.73;;
61590;SDS011;57639;52.410;-1.966;2023-02-28T10:41:03;1.20;;;0.95;;
61590;SDS011;57639;52.410;-1.966;2023-02-28T10:44:14;1.40;;;0.80;;
61590;SDS011;57639;52.410;-1.966;2023-02-28T10:47:27;1.52;;;0.80;;
61590;SDS011;57639;52.410;-1.966;2023-02-28T10:50:35;1.10;;;0.80;;
61590;SDS011;57639;52.410;-1.966;2023-02-28T10:53:48;1.00;;;0.80;;
61590;SDS011;57639;52.410;-1.966;2023-02-28T10:57:05;1.45;;;0.90;;
61590;SDS011;57639;52.410;-1.966;2023-02-28T11:00:14;1.10;;;0.80;;
61590;SDS011;57639;52.410;-1.966;2023-02-28T11:03:28;1.25;;;0.90;;
61590;SDS011;57639;52.410;-1.966;2023-02-28T11:06:37;1.48;;;0.90;;
61590;SDS011;57639;52.410;-1.966;2023-02-28T11:09:44;1.10;;;0.80;;
61590;SDS011;57639;52.410;-1.966;2023-02-28T11:12:54;1.15;;;0.70;;
61590;SDS011;57639;52.410;-1.966;2023-02-28T11:16:02;1.55;;;0.60;;
61590;SDS011;57639;52.410;-1.966;2023-02-28T11:19:18;2.60;;;1.13;;
61590;SDS011;57639;52.410;-1.966;2023-02-28T11:22:26;1.10;;;0.63;;
61590;SDS011;57639;52.410;-1.966;2023-02-28T11:25:36;2.50;;;0.80;;
61590;SDS011;57639;52.410;-1.966;2023-02-28T11:28:43;1.60;;;0.80;;
61590;SDS011;57639;52.410;-1.966;2023-02-28T11:32:07;1.35;;;0.90;;
61590;SDS011;57639;52.410;-1.966;2023-02-28T11:35:23;1.13;;;0.60;;
61590;SDS011;57639;52.410;-1.966;2023-02-28T11:38:37;0.90;;;0.70;;
61590;SDS011;57639;52.410;-1.966;2023-02-28T11:41:49;1.10;;;0.80;;
61590;SDS011;57639;52.410;-1.966;2023-02-28T11:45:18;2.65;;;0.80;;
61590;SDS011;57639;52.410;-1.966;2023-02-28T11:48:49;2.05;;;0.60;;
61590;SDS011;57639;52.410;-1.966;2023-02-28T11:52:05;1.65;;;0.68;;
61590;SDS011;57639;52.410;-1.966;2023-02-28T11:55:24;1.20;;;0.60;;
61590;SDS011;57639;52.410;-1.966;2023-02-28T11:58:38;2.10;;;0.60;;
61590;SDS011;57639;52.410;-1.966;2023-02-28T12:01:58;1.65;;;0.75;;
61590;SDS011;57639;52.410;-1.966;2023-02-28T12:05:19;0.80;;;0.60;;
61590;SDS011;57639;52.410;-1.966;2023-02-28T12:08:38;1.65;;;0.85;;
61590;SDS011;57639;52.410;-1.966;2023-02-28T12:11:55;1.05;;;0.60;;
61590;SDS011;57639;52.410;-1.966;2023-02-28T12:15:11;1.30;;;0.60;;
61590;SDS011;57639;52.410;-1.966;2023-02-28T12:18:27;1.83;;;0.70;;
61590;SDS011;57639;52.410;-1.966;2023-02-28T12:21:48;2.67;;;0.73;;
61590;SDS011;57639;52.410;-1.966;2023-02-28T12:25:18;2.35;;;0.63;;
61590;SDS011;57639;52.410;-1.966;2023-02-28T12:28:46;1.42;;;0.70;;
61590;SDS011;57639;52.410;-1.966;2023-02-28T12:31:56;1.88;;;0.60;;
61590;SDS011;57639;52.410;-1.966;2023-02-28T12:35:06;1.92;;;0.90;;
61590;SDS011;57639;52.410;-1.966;2023-02-28T12:38:18;2.08;;;0.88;;
61590;SDS011;57639;52.410;-1.966;2023-02-28T12:41:32;1.33;;;0.80;;
61590;SDS011;57639;52.410;-1.966;2023-02-28T12:44:44;2.55;;;0.80;;
61590;SDS011;57639;52.410;-1.966;2023-02-28T12:47:55;1.92;;;0.80;;
61590;SDS011;57639;52.410;-1.966;2023-02-28T12:51:05;2.13;;;0.75;;
61590;SDS011;57639;52.410;-1.966;2023-02-28T12:54:15;1.98;;;0.65;;
61590;SDS011;57639;52.410;-1.966;2023-02-28T12:57:31;2.45;;;0.65;;
61590;SDS011;57639;52.410;-1.966;2023-02-28T13:00:47;1.58;;;0.80;;
61590;SDS011;57639;52.410;-1.966;2023-02-28T13:11:19;0.95;;;0.60;;
61590;SDS011;57639;52.410;-1.966;2023-02-28T13:17:41;3.78;;;0.80;;
61590;SDS011;57639;52.410;-1.966;2023-02-28T13:20:53;1.45;;;0.60;;
61590;SDS011;57639;52.410;-1.966;2023-02-28T13:24:00;1.35;;;0.60;;
61590;SDS011;57639;52.410;-1.966;2023-02-28T13:27:17;1.35;;;0.80;;
61590;SDS011;57639;52.410;-1.966;2023-02-28T13:34:13;1.88;;;0.80;;
61590;SDS011;57639;52.410;-1.966;2023-02-28T13:37:31;1.20;;;0.65;;
61590;SDS011;57639;52.410;-1.966;2023-02-28T13:40:40;1.23;;;0.63;;
61590;SDS011;57639;52.410;-1.966;2023-02-28T13:43:59;1.30;;;0.50;;
61590;SDS011;57639;52.410;-1.966;2023-02-28T13:47:19;1.05;;;0.57;;
61590;SDS011;57639;52.410;-1.966;2023-02-28T13:50:29;1.05;;;0.73;;
61590;SDS011;57639;52.410;-1.966;2023-02-28T13:53:53;1.40;;;0.60;;
61590;SDS011;57639;52.410;-1.966;2023-02-28T13:57:12;0.68;;;0.43;;
61590;SDS011;57639;52.410;-1.966;2023-02-28T14:00:30;1.20;;;0.60;;
61590;SDS011;57639;52.410;-1.966;2023-02-28T14:03:55;1.30;;;0.50;;
61590;SDS011;57639;52.410;-1.966;2023-02-28T14:07:09;1.45;;;0.50;;
61590;SDS011;57639;52.410;-1.966;2023-02-28T14:10:25;1.88;;;0.60;;
61590;SDS011;57639;52.410;-1.966;2023-02-28T14:13:39;0.75;;;0.47;;
61590;SDS011;57639;52.410;-1.966;2023-02-28T14:16:50;1.08;;;0.50;;
61590;SDS011;57639;52.410;-1.966;2023-02-28T14:19:58;0.80;;;0.50;;
61590;SDS011;57639;52.410;-1.966;2023-02-28T14:23:06;1.05;;;0.50;;
61590;SDS011;57639;52.410;-1.966;2023-02-28T14:26:25;1.38;;;0.50;;
61590;SDS011;57639;52.410;-1.966;2023-02-28T14:29:45;1.05;;;0.43;;
61590;SDS011;57639;52.410;-1.966;2023-02-28T14:33:16;1.30;;;0.60;;
61590;SDS011;57639;52.410;-1.966;2023-02-28T14:36:33;1.25;;;0.50;;
61590;SDS011;57639;52.410;-1.966;2023-02-28T14:39:42;1.75;;;0.70;;
61590;SDS011;57639;52.410;-1.966;2023-02-28T14:42:54;1.08;;;0.57;;
61590;SDS011;57639;52.410;-1.966;2023-02-28T14:46:02;0.75;;;0.40;;
61590;SDS011;57639;52.410;-1.966;2023-02-28T14:49:13;0.70;;;0.50;;
61590;SDS011;57639;52.410;-1.966;2023-02-28T14:52:26;1.90;;;0.50;;
61590;SDS011;57639;52.410;-1.966;2023-02-28T14:55:34;0.80;;;0.52;;
61590;SDS011;57639;52.410;-1.966;2023-02-28T14:58:41;1.38;;;0.60;;
61590;SDS011;57639;52.410;-1.966;2023-02-28T15:05:24;0.80;;;0.43;;
61590;SDS011;57639;52.410;-1.966;2023-02-28T15:08:36;1.15;;;0.60;;
61590;SDS011;57639;52.410;-1.966;2023-02-28T15:11:42;0.90;;;0.45;;
61590;SDS011;57639;52.410;-1.966;2023-02-28T15:14:52;1.92;;;0.77;;
61590;SDS011;57639;52.410;-1.966;2023-02-28T15:17:59;1.17;;;0.40;;
61590;SDS011;57639;52.410;-1.966;2023-02-28T15:21:09;0.82;;;0.57;;
61590;SDS011;57639;52.410;-1.966;2023-02-28T15:24:21;0.45;;;0.45;;
61590;SDS011;57639;52.410;-1.966;2023-02-28T15:27:37;1.08;;;0.50;;
61590;SDS011;57639;52.410;-1.966;2023-02-28T15:30:53;1.40;;;0.52;;
61590;SDS011;57639;52.410;-1.966;2023-02-28T15:34:03;1.02;;;0.57;;
61590;SDS011;57639;52.410;-1.966;2023-02-28T15:37:27;1.42;;;0.70;;
61590;SDS011;57639;52.410;-1.966;2023-02-28T15:40:40;0.82;;;0.55;;
61590;SDS011;57639;52.410;-1.966;2023-02-28T15:44:15;1.05;;;0.60;;
61590;SDS011;57639;52.410;-1.966;2023-02-28T15:47:23;0.90;;;0.60;;
61590;SDS011;57639;52.410;-1.966;2023-02-28T15:50:31;1.30;;;0.47;;
61590;SDS011;57639;52.410;-1.966;2023-02-28T15:53:40;0.95;;;0.60;;
61590;SDS011;57639;52.410;-1.966;2023-02-28T15:56:55;1.23;;;0.60;;
61590;SDS011;57639;52.410;-1.966;2023-02-28T16:00:03;1.77;;;0.70;;
61590;SDS011;57639;52.410;-1.966;2023-02-28T16:03:22;1.10;;;0.80;;
61590;SDS011;57639;52.410;-1.966;2023-02-28T16:06:33;1.50;;;0.77;;
61590;SDS011;57639;52.410;-1.966;2023-02-28T16:09:41;1.80;;;0.70;;
61590;SDS011;57639;52.410;-1.966;2023-02-28T16:12:52;0.73;;;0.50;;
61590;SDS011;57639;52.410;-1.966;2023-02-28T16:15:59;1.45;;;0.50;;
61590;SDS011;57639;52.410;-1.966;2023-02-28T16:19:05;2.40;;;0.60;;
61590;SDS011;57639;52.410;-1.966;2023-02-28T16:22:13;1.38;;;0.60;;
61590;SDS011;57639;52.410;-1.966;2023-02-28T16:25:19;1.10;;;0.60;;
61590;SDS011;57639;52.410;-1.966;2023-02-28T16:28:35;1.30;;;0.70;;
61590;SDS011;57639;52.410;-1.966;2023-02-28T16:31:43;1.00;;;0.60;;
61590;SDS011;57639;52.410;-1.966;2023-02-28T16:34:49;2.17;;;0.68;;
61590;SDS011;57639;52.410;-1.966;2023-02-28T16:37:55;1.95;;;0.70;;
61590;SDS011;57639;52.410;-1.966;2023-02-28T16:41:01;0.90;;;0.50;;
61590;SDS011;57639;52.410;-1.966;2023-02-28T16:44:12;1.63;;;0.68;;
61590;SDS011;57639;52.410;-1.966;2023-02-28T16:47:24;1.08;;;0.40;;
61590;SDS011;57639;52.410;-1.966;2023-02-28T16:50:31;0.95;;;0.50;;
61590;SDS011;57639;52.410;-1.966;2023-02-28T16:53:37;0.93;;;0.60;;
61590;SDS011;57639;52.410;-1.966;2023-02-28T16:56:44;1.40;;;0.52;;
61590;SDS011;57639;52.410;-1.966;2023-02-28T16:59:54;0.77;;;0.47;;
61590;SDS011;57639;52.410;-1.966;2023-02-28T17:03:01;0.90;;;0.50;;
61590;SDS011;57639;52.410;-1.966;2023-02-28T17:06:11;0.90;;;0.60;;
61590;SDS011;57639;52.410;-1.966;2023-02-28T17:09:24;1.02;;;0.50;;
61590;SDS011;57639;52.410;-1.966;2023-02-28T17:12:30;1.00;;;0.50;;
61590;SDS011;57639;52.410;-1.966;2023-02-28T17:15:39;1.10;;;0.50;;
61590;SDS011;57639;52.410;-1.966;2023-02-28T17:18:45;1.70;;;0.70;;
61590;SDS011;57639;52.410;-1.966;2023-02-28T17:21:51;1.30;;;0.50;;
61590;SDS011;57639;52.410;-1.966;2023-02-28T17:24:57;2.47;;;0.55;;
61590;SDS011;57639;52.410;-1.966;2023-02-28T17:28:03;1.90;;;0.60;;
61590;SDS011;57639;52.410;-1.966;2023-02-28T17:31:12;1.73;;;0.82;;
61590;SDS011;57639;52.410;-1.966;2023-02-28T17:34:18;2.88;;;0.50;;
61590;SDS011;57639;52.410;-1.966;2023-02-28T17:37:25;1.77;;;0.70;;
61590;SDS011;57639;52.410;-1.966;2023-02-28T17:40:31;1.38;;;0.60;;
61590;SDS011;57639;52.410;-1.966;2023-02-28T17:43:40;2.67;;;0.60;;
61590;SDS011;57639;52.410;-1.966;2023-02-28T17:46:49;1.00;;;0.50;;
61590;SDS011;57639;52.410;-1.966;2023-02-28T17:49:55;1.23;;;0.60;;
61590;SDS011;57639;52.410;-1.966;2023-02-28T17:53:01;0.90;;;0.45;;
61590;SDS011;57639;52.410;-1.966;2023-02-28T17:56:10;1.23;;;0.63;;
61590;SDS011;57639;52.410;-1.966;2023-02-28T17:59:17;1.65;;;0.60;;
61590;SDS011;57639;52.410;-1.966;2023-02-28T18:02:26;2.35;;;0.60;;
61590;SDS011;57639;52.410;-1.966;2023-02-28T18:05:30;1.42;;;0.85;;
61590;SDS011;57639;52.410;-1.966;2023-02-28T18:08:38;1.63;;;0.57;;
61590;SDS011;57639;52.410;-1.966;2023-02-28T18:11:44;2.10;;;0.80;;
61590;SDS011;57639;52.410;-1.966;2023-02-28T18:14:50;1.73;;;0.60;;
61590;SDS011;57639;52.410;-1.966;2023-02-28T18:17:59;1.08;;;0.68;;
61590;SDS011;57639;52.410;-1.966;2023-02-28T18:21:05;1.40;;;0.60;;
61590;SDS011;57639;52.410;-1.966;2023-02-28T18:24:12;1.40;;;0.80;;
61590;SDS011;57639;52.410;-1.966;2023-02-28T18:27:17;2.55;;;0.73;;
61590;SDS011;57639;52.410;-1.966;2023-02-28T18:30:27;2.17;;;0.80;;
61590;SDS011;57639;52.410;-1.966;2023-02-28T18:33:38;1.42;;;0.60;;
61590;SDS011;57639;52.410;-1.966;2023-02-28T18:36:44;1.20;;;0.70;;
61590;SDS011;57639;52.410;-1.966;2023-02-28T18:39:52;0.90;;;0.60;;
61590;SDS011;57639;52.410;-1.966;2023-02-28T18:42:58;0.82;;;0.50;;
61590;SDS011;57639;52.410;-1.966;2023-02-28T18:46:05;1.05;;;0.52;;
61590;SDS011;57639;52.410;-1.966;2023-02-28T18:49:15;1.10;;;0.50;;
61590;SDS011;57639;52.410;-1.966;2023-02-28T18:52:21;2.17;;;0.80;;
61590;SDS011;57639;52.410;-1.966;2023-02-28T18:55:25;1.88;;;0.75;;
61590;SDS011;57639;52.410;-1.966;2023-02-28T18:58:32;0.90;;;0.60;;
61590;SDS011;57639;52.410;-1.966;2023-02-28T19:01:38;0.98;;;0.60;;
61590;SDS011;57639;52.410;-1.966;2023-02-28T19:04:45;0.65;;;0.40;;
61590;SDS011;57639;52.410;-1.966;2023-02-28T19:07:51;1.35;;;0.60;;